sensor_id;sensor_type;location;lat;lon;timestamp;pressure;altitude;pressure_sealevel;temperature;humidity
12676;BME280;63820;65.654;21.944;2023-02-17T00:04:02;99806.59;;;-4.25;100.00
12676;BME280;63820;65.654;21.944;2023-02-17T00:06:47;99804.91;;;-4.23;100.00
12676;BME280;63820;65.654;21.944;2023-02-17T00:09:31;99815.00;;;-4.36;100.00
12676;BME280;63820;65.654;21.944;2023-02-17T00:12:15;99815.00;;;-4.37;100.00
12676;BME280;63820;65.654;21.944;2023-02-17T00:14:59;99809.00;;;-4.45;100.00
12676;BME280;63820;65.654;21.944;2023-02-17T00:17:43;99805.63;;;-4.44;100.00
12676;BME280;63820;65.654;21.944;2023-02-17T00:20:27;99802.44;;;-4.07;100.00
12676;BME280;63820;65.654;21.944;2023-02-17T00:23:11;99793.13;;;-4.03;100.00
12676;BME280;63820;65.654;21.944;2023-02-17T00:25:56;99805.00;;;-3.96;100.00
12676;BME280;63820;65.654;21.944;2023-02-17T00:28:40;99804.97;;;-4.07;100.00
12676;BME280;63820;65.654;21.944;2023-02-17T00:31:24;99788.78;;;-4.30;100.00
12676;BME280;63820;65.654;21.944;2023-02-17T00:34:08;99798.16;;;-4.15;100.00
12676;BME280;63820;65.654;21.944;2023-02-17T00:36:52;99800.75;;;-4.03;100.00
12676;BME280;63820;65.654;21.944;2023-02-17T00:39:36;99798.28;;;-3.86;100.00
12676;BME280;63820;65.654;21.944;2023-02-17T00:42:21;99790.72;;;-3.74;100.00
12676;BME280;63820;65.654;21.944;2023-02-17T00:45:05;99804.31;;;-3.60;100.00
12676;BME280;63820;65.654;21.944;2023-02-17T00:47:50;99796.66;;;-3.69;100.00
12676;BME280;63820;65.654;21.944;2023-02-17T00:50:34;99797.53;;;-3.58;100.00
12676;BME280;63820;65.654;21.944;2023-02-17T00:53:18;99802.59;;;-3.67;100.00
12676;BME280;63820;65.654;21.944;2023-02-17T00:56:03;99809.31;;;-3.77;100.00
12676;BME280;63820;65.654;21.944;2023-02-17T00:58:47;99811.81;;;-3.93;100.00
12676;BME280;63820;65.654;21.944;2023-02-17T01:01:32;99804.09;;;-4.18;100.00
12676;BME280;63820;65.654;21.944;2023-02-17T01:04:16;99808.22;;;-4.38;100.00
12676;BME280;63820;65.654;21.944;2023-02-17T01:07:00;99798.75;;;-4.61;100.00
12676;BME280;63820;65.654;21.944;2023-02-17T01:09:44;99795.19;;;-4.87;100.00
12676;BME280;63820;65.654;21.944;2023-02-17T01:12:28;99792.56;;;-4.96;100.00
12676;BME280;63820;65.654;21.944;2023-02-17T01:15:12;99795.88;;;-5.06;100.00
12676;BME280;63820;65.654;21.944;2023-02-17T01:17:57;99793.22;;;-5.23;100.00
12676;BME280;63820;65.654;21.944;2023-02-17T01:20:41;99804.91;;;-5.39;100.00
12676;BME280;63820;65.654;21.944;2023-02-17T01:23:26;99800.63;;;-5.43;100.00
12676;BME280;63820;65.654;21.944;2023-02-17T01:26:19;99803.94;;;-5.50;100.00
12676;BME280;63820;65.654;21.944;2023-02-17T01:29:05;99796.50;;;-5.35;100.00
12676;BME280;63820;65.654;21.944;2023-02-17T01:31:50;99803.50;;;-5.03;100.00
12676;BME280;63820;65.654;21.944;2023-02-17T01:34:33;99795.22;;;-4.84;100.00
12676;BME280;63820;65.654;21.944;2023-02-17T01:37:17;99801.31;;;-4.59;100.00
12676;BME280;63820;65.654;21.944;2023-02-17T01:40:03;99797.13;;;-4.52;100.00
12676;BME280;63820;65.654;21.944;2023-02-17T01:42:47;99801.25;;;-4.65;100.00
12676;BME280;63820;65.654;21.944;2023-02-17T01:45:34;99801.84;;;-4.98;100.00
12676;BME280;63820;65.654;21.944;2023-02-17T01:48:25;99794.72;;;-5.42;100.00
12676;BME280;63820;65.654;21.944;2023-02-17T01:51:19;99803.66;;;-5.74;100.00
12676;BME280;63820;65.654;21.944;2023-02-17T01:56:52;99797.31;;;-6.14;100.00
12676;BME280;63820;65.654;21.944;2023-02-17T01:59:37;99797.88;;;-6.38;100.00
12676;BME280;63820;65.654;21.944;2023-02-17T02:02:22;99801.19;;;-6.42;100.00
12676;BME280;63820;65.654;21.944;2023-02-17T02:05:07;99796.78;;;-6.55;100.00
12676;BME280;63820;65.654;21.944;2023-02-17T02:07:53;99796.41;;;-6.80;100.00
12676;BME280;63820;65.654;21.944;2023-02-17T02:10:38;99802.97;;;-6.91;100.00
12676;BME280;63820;65.654;21.944;2023-02-17T02:13:22;99804.59;;;-6.96;100.00
12676;BME280;63820;65.654;21.944;2023-02-17T02:16:21;99796.81;;;-7.07;100.00
12676;BME280;63820;65.654;21.944;2023-02-17T02:22:30;99785.66;;;-7.19;100.00
12676;BME280;63820;65.654;21.944;2023-02-17T02:34:38;99769.53;;;-7.29;100.00
12676;BME280;63820;65.654;21.944;2023-02-17T02:37:34;99770.25;;;-7.36;100.00
12676;BME280;63820;65.654;21.944;2023-02-17T02:40:22;99767.56;;;-7.45;100.00
12676;BME280;63820;65.654;21.944;2023-02-17T02:43:08;99765.03;;;-7.47;100.00
12676;BME280;63820;65.654;21.944;2023-02-17T02:45:52;99760.09;;;-7.39;100.00
12676;BME280;63820;65.654;21.944;2023-02-17T02:48:37;99760.81;;;-7.46;100.00
12676;BME280;63820;65.654;21.944;2023-02-17T02:51:36;99768.38;;;-7.48;100.00
12676;BME280;63820;65.654;21.944;2023-02-17T02:54:40;99771.88;;;-7.40;100.00
12676;BME280;63820;65.654;21.944;2023-02-17T03:04:18;99764.84;;;-7.57;100.00
12676;BME280;63820;65.654;21.944;2023-02-17T03:10:07;99759.13;;;-7.93;100.00
12676;BME280;63820;65.654;21.944;2023-02-17T03:12:52;99762.50;;;-7.92;100.00
12676;BME280;63820;65.654;21.944;2023-02-17T03:15:36;99761.44;;;-8.05;100.00
12676;BME280;63820;65.654;21.944;2023-02-17T03:18:20;99766.16;;;-8.20;100.00
12676;BME280;63820;65.654;21.944;2023-02-17T03:21:13;99751.66;;;-8.30;100.00
12676;BME280;63820;65.654;21.944;2023-02-17T03:23:59;99756.72;;;-8.33;100.00
12676;BME280;63820;65.654;21.944;2023-02-17T03:26:42;99746.44;;;-8.42;100.00
12676;BME280;63820;65.654;21.944;2023-02-17T03:29:27;99749.81;;;-8.42;100.00
12676;BME280;63820;65.654;21.944;2023-02-17T03:32:11;99743.25;;;-8.32;100.00
12676;BME280;63820;65.654;21.944;2023-02-17T03:34:55;99745.66;;;-8.40;100.00
12676;BME280;63820;65.654;21.944;2023-02-17T03:37:40;99738.06;;;-8.41;100.00
12676;BME280;63820;65.654;21.944;2023-02-17T03:40:24;99732.88;;;-8.47;100.00
12676;BME280;63820;65.654;21.944;2023-02-17T03:43:09;99731.13;;;-8.51;100.00
12676;BME280;63820;65.654;21.944;2023-02-17T03:45:53;99734.38;;;-8.55;100.00
12676;BME280;63820;65.654;21.944;2023-02-17T03:48:37;99729.41;;;-8.52;100.00
12676;BME280;63820;65.654;21.944;2023-02-17T03:51:23;99734.38;;;-8.55;100.00
12676;BME280;63820;65.654;21.944;2023-02-17T03:54:07;99741.13;;;-8.54;100.00
12676;BME280;63820;65.654;21.944;2023-02-17T03:56:51;99734.44;;;-8.54;100.00
12676;BME280;63820;65.654;21.944;2023-02-17T03:59:36;99739.44;;;-8.55;100.00
12676;BME280;63820;65.654;21.944;2023-02-17T04:02:20;99739.31;;;-8.62;100.00
12676;BME280;63820;65.654;21.944;2023-02-17T04:05:05;99746.97;;;-8.57;100.00
12676;BME280;63820;65.654;21.944;2023-02-17T04:07:49;99742.78;;;-8.56;100.00
12676;BME280;63820;65.654;21.944;2023-02-17T04:10:34;99734.06;;;-8.71;100.00
12676;BME280;63820;65.654;21.944;2023-02-17T04:13:18;99733.84;;;-8.80;100.00
12676;BME280;63820;65.654;21.944;2023-02-17T04:16:03;99735.34;;;-8.88;100.00
12676;BME280;63820;65.654;21.944;2023-02-17T04:18:47;99734.53;;;-8.87;100.00
12676;BME280;63820;65.654;21.944;2023-02-17T04:21:31;99723.50;;;-8.92;100.00
12676;BME280;63820;65.654;21.944;2023-02-17T04:24:15;99733.72;;;-8.86;100.00
12676;BME280;63820;65.654;21.944;2023-02-17T04:26:59;99734.53;;;-8.87;100.00
12676;BME280;63820;65.654;21.944;2023-02-17T04:29:43;99735.34;;;-8.88;100.00
12676;BME280;63820;65.654;21.944;2023-02-17T04:32:28;99735.94;;;-9.00;100.00
12676;BME280;63820;65.654;21.944;2023-02-17T04:35:12;99747.69;;;-9.00;100.00
12676;BME280;63820;65.654;21.944;2023-02-17T04:37:57;99737.56;;;-9.02;100.00
12676;BME280;63820;65.654;21.944;2023-02-17T04:40:42;99740.00;;;-9.05;100.00
12676;BME280;63820;65.654;21.944;2023-02-17T04:43:27;99738.13;;;-9.13;100.00
12676;BME280;63820;65.654;21.944;2023-02-17T04:46:12;99741.75;;;-9.02;100.00
12676;BME280;63820;65.654;21.944;2023-02-17T04:48:56;99734.94;;;-9.06;100.00
12676;BME280;63820;65.654;21.944;2023-02-17T04:51:40;99727.66;;;-8.94;100.00
12676;BME280;63820;65.654;21.944;2023-02-17T04:54:24;99738.59;;;-8.94;100.00
12676;BME280;63820;65.654;21.944;2023-02-17T04:57:08;99737.66;;;-8.97;100.00
12676;BME280;63820;65.654;21.944;2023-02-17T04:59:52;99731.66;;;-9.04;100.00
12676;BME280;63820;65.654;21.944;2023-02-17T05:02:36;99722.16;;;-9.14;100.00
12676;BME280;63820;65.654;21.944;2023-02-17T05:05:20;99741.41;;;-9.17;100.00
12676;BME280;63820;65.654;21.944;2023-02-17T05:08:04;99732.81;;;-9.26;100.00
12676;BME280;63820;65.654;21.944;2023-02-17T05:10:52;99731.97;;;-9.26;100.00
12676;BME280;63820;65.654;21.944;2023-02-17T05:13:36;99740.19;;;-9.33;100.00
12676;BME280;63820;65.654;21.944;2023-02-17T05:16:20;99731.09;;;-9.27;100.00
12676;BME280;63820;65.654;21.944;2023-02-17T05:19:04;99738.66;;;-9.27;100.00
12676;BME280;63820;65.654;21.944;2023-02-17T05:21:48;99729.47;;;-9.25;100.00
12676;BME280;63820;65.654;21.944;2023-02-17T05:24:34;99735.91;;;-9.37;100.00
12676;BME280;63820;65.654;21.944;2023-02-17T05:27:18;99730.84;;;-9.39;100.00
12676;BME280;63820;65.654;21.944;2023-02-17T05:30:03;99722.19;;;-9.50;100.00
12676;BME280;63820;65.654;21.944;2023-02-17T05:32:47;99729.84;;;-9.45;100.00
12676;BME280;63820;65.654;21.944;2023-02-17T05:35:34;99727.38;;;-9.44;100.00
12676;BME280;63820;65.654;21.944;2023-02-17T05:38:18;99725.59;;;-9.48;100.00
12676;BME280;63820;65.654;21.944;2023-02-17T05:41:03;99731.53;;;-9.44;100.00
12676;BME280;63820;65.654;21.944;2023-02-17T05:43:47;99720.69;;;-9.42;100.00
12676;BME280;63820;65.654;21.944;2023-02-17T05:46:32;99728.19;;;-9.45;100.00
12676;BME280;63820;65.654;21.944;2023-02-17T05:49:16;99718.88;;;-9.47;100.00
12676;BME280;63820;65.654;21.944;2023-02-17T05:52:00;99710.25;;;-9.57;100.00
12676;BME280;63820;65.654;21.944;2023-02-17T05:54:45;99711.56;;;-9.38;100.00
12676;BME280;63820;65.654;21.944;2023-02-17T05:57:29;99717.25;;;-9.45;100.00
12676;BME280;63820;65.654;21.944;2023-02-17T06:00:13;99715.00;;;-9.33;100.00
12676;BME280;63820;65.654;21.944;2023-02-17T06:02:58;99720.00;;;-9.35;100.00
12676;BME280;63820;65.654;21.944;2023-02-17T06:05:44;99724.50;;;-9.58;100.00
12676;BME280;63820;65.654;21.944;2023-02-17T06:08:28;99729.84;;;-9.78;100.00
12676;BME280;63820;65.654;21.944;2023-02-17T06:11:13;99738.75;;;-9.91;100.00
12676;BME280;63820;65.654;21.944;2023-02-17T06:13:57;99730.38;;;-9.90;100.00
12676;BME280;63820;65.654;21.944;2023-02-17T06:16:41;99728.63;;;-9.93;100.00
12676;BME280;63820;65.654;21.944;2023-02-17T06:19:25;99734.41;;;-9.97;100.00
12676;BME280;63820;65.654;21.944;2023-02-17T06:22:10;99735.94;;;-10.02;100.00
12676;BME280;63820;65.654;21.944;2023-02-17T06:24:54;99731.06;;;-9.96;100.00
12676;BME280;63820;65.654;21.944;2023-02-17T06:27:38;99735.25;;;-9.96;100.00
12676;BME280;63820;65.654;21.944;2023-02-17T06:30:24;99734.63;;;-9.87;100.00
12676;BME280;63820;65.654;21.944;2023-02-17T06:33:09;99729.78;;;-9.81;100.00
12676;BME280;63820;65.654;21.944;2023-02-17T06:35:53;99731.88;;;-9.65;100.00
12676;BME280;63820;65.654;21.944;2023-02-17T06:38:38;99732.38;;;-9.78;100.00
12676;BME280;63820;65.654;21.944;2023-02-17T06:41:22;99734.81;;;-9.81;100.00
12676;BME280;63820;65.654;21.944;2023-02-17T06:44:07;99741.47;;;-9.83;100.00
12676;BME280;63820;65.654;21.944;2023-02-17T06:46:51;99742.09;;;-9.91;100.00
12676;BME280;63820;65.654;21.944;2023-02-17T06:49:35;99734.56;;;-9.91;100.00
12676;BME280;63820;65.654;21.944;2023-02-17T06:52:20;99734.44;;;-9.95;100.00
12676;BME280;63820;65.654;21.944;2023-02-17T06:55:04;99743.69;;;-9.94;100.00
12676;BME280;63820;65.654;21.944;2023-02-17T06:57:48;99743.81;;;-9.90;100.00
12676;BME280;63820;65.654;21.944;2023-02-17T07:00:32;99740.72;;;-9.79;100.00
12676;BME280;63820;65.654;21.944;2023-02-17T07:03:16;99740.91;;;-9.72;100.00
12676;BME280;63820;65.654;21.944;2023-02-17T07:06:00;99742.91;;;-9.60;100.00
12676;BME280;63820;65.654;21.944;2023-02-17T07:08:45;99741.19;;;-9.61;100.00
12676;BME280;63820;65.654;21.944;2023-02-17T07:11:29;99738.13;;;-9.49;100.00
12676;BME280;63820;65.654;21.944;2023-02-17T07:14:16;99738.47;;;-9.34;100.00
12676;BME280;63820;65.654;21.944;2023-02-17T07:17:01;99731.25;;;-9.20;100.00
12676;BME280;63820;65.654;21.944;2023-02-17T07:19:45;99729.53;;;-9.21;100.00
12676;BME280;63820;65.654;21.944;2023-02-17T07:22:28;99732.22;;;-9.15;100.00
12676;BME280;63820;65.654;21.944;2023-02-17T07:25:12;99727.88;;;-9.21;100.00
12676;BME280;63820;65.654;21.944;2023-02-17T07:27:58;99725.47;;;-9.16;100.00
12676;BME280;63820;65.654;21.944;2023-02-17T07:30:43;99731.25;;;-9.20;100.00
12676;BME280;63820;65.654;21.944;2023-02-17T07:33:27;99731.25;;;-9.20;100.00
12676;BME280;63820;65.654;21.944;2023-02-17T07:36:12;99728.78;;;-9.19;100.00
12676;BME280;63820;65.654;21.944;2023-02-17T07:38:57;99731.41;;;-9.14;100.00
12676;BME280;63820;65.654;21.944;2023-02-17T07:41:42;99728.84;;;-9.16;100.00
12676;BME280;63820;65.654;21.944;2023-02-17T07:44:26;99728.84;;;-9.16;100.00
12676;BME280;63820;65.654;21.944;2023-02-17T07:47:10;99725.69;;;-9.07;100.00
12676;BME280;63820;65.654;21.944;2023-02-17T07:49:55;99719.91;;;-9.03;100.00
12676;BME280;63820;65.654;21.944;2023-02-17T07:52:39;99724.50;;;-8.85;100.00
12676;BME280;63820;65.654;21.944;2023-02-17T07:55:23;99724.84;;;-8.70;100.00
12676;BME280;63820;65.654;21.944;2023-02-17T07:58:07;99715.44;;;-8.77;100.00
12676;BME280;63820;65.654;21.944;2023-02-17T08:00:51;99722.41;;;-8.66;100.00
12676;BME280;63820;65.654;21.944;2023-02-17T08:03:35;99723.31;;;-8.62;100.00
12676;BME280;63820;65.654;21.944;2023-02-17T08:06:24;99721.69;;;-8.60;100.00
12676;BME280;63820;65.654;21.944;2023-02-17T08:09:10;99716.72;;;-8.57;100.00
12676;BME280;63820;65.654;21.944;2023-02-17T08:12:18;99728.91;;;-8.36;100.00
12676;BME280;63820;65.654;21.944;2023-02-17T08:15:21;99733.03;;;-7.95;100.00
12676;BME280;63820;65.654;21.944;2023-02-17T08:18:05;99726.41;;;-7.40;100.00
12676;BME280;63820;65.654;21.944;2023-02-17T08:20:50;99731.06;;;-6.52;100.00
12676;BME280;63820;65.654;21.944;2023-02-17T08:23:34;99725.47;;;-5.41;100.00
12676;BME280;63820;65.654;21.944;2023-02-17T08:26:19;99723.78;;;-3.81;100.00
12676;BME280;63820;65.654;21.944;2023-02-17T08:29:03;99727.88;;;-2.15;100.00
12676;BME280;63820;65.654;21.944;2023-02-17T08:31:51;99723.34;;;-0.63;100.00
12676;BME280;63820;65.654;21.944;2023-02-17T08:34:35;99722.59;;;0.60;100.00
12676;BME280;63820;65.654;21.944;2023-02-17T08:37:20;99716.88;;;2.28;100.00
12676;BME280;63820;65.654;21.944;2023-02-17T08:40:05;99725.31;;;2.33;100.00
12676;BME280;63820;65.654;21.944;2023-02-17T08:42:49;99723.16;;;3.23;100.00
12676;BME280;63820;65.654;21.944;2023-02-17T08:45:34;99714.53;;;4.17;72.64
12676;BME280;63820;65.654;21.944;2023-02-17T08:48:22;99723.59;;;6.09;59.19
12676;BME280;63820;65.654;21.944;2023-02-17T08:51:06;99721.13;;;7.15;52.70
12676;BME280;63820;65.654;21.944;2023-02-17T08:53:58;99727.00;;;8.17;46.85
12676;BME280;63820;65.654;21.944;2023-02-17T08:56:44;99726.69;;;8.97;45.22
12676;BME280;63820;65.654;21.944;2023-02-17T08:59:28;99716.00;;;6.71;44.02
12676;BME280;63820;65.654;21.944;2023-02-17T09:02:14;99719.78;;;8.05;43.65
12676;BME280;63820;65.654;21.944;2023-02-17T09:04:58;99726.59;;;8.81;41.63
12676;BME280;63820;65.654;21.944;2023-02-17T09:07:42;99725.28;;;5.62;45.16
12676;BME280;63820;65.654;21.944;2023-02-17T09:10:26;99721.75;;;7.40;43.91
12676;BME280;63820;65.654;21.944;2023-02-17T09:13:11;99715.59;;;7.02;42.02
12676;BME280;63820;65.654;21.944;2023-02-17T09:15:55;99711.50;;;8.53;43.02
12676;BME280;63820;65.654;21.944;2023-02-17T09:18:39;99711.97;;;8.97;40.52
12676;BME280;63820;65.654;21.944;2023-02-17T09:21:24;99710.13;;;9.16;40.63
12676;BME280;63820;65.654;21.944;2023-02-17T09:24:08;99707.34;;;12.27;37.63
12676;BME280;63820;65.654;21.944;2023-02-17T09:26:52;99705.00;;;11.51;36.74
12676;BME280;63820;65.654;21.944;2023-02-17T09:29:36;99703.44;;;10.74;37.73
12676;BME280;63820;65.654;21.944;2023-02-17T09:32:21;99702.28;;;11.24;38.87
12676;BME280;63820;65.654;21.944;2023-02-17T09:35:06;99697.81;;;11.99;38.72
12676;BME280;63820;65.654;21.944;2023-02-17T09:37:50;99699.44;;;12.82;38.27
12676;BME280;63820;65.654;21.944;2023-02-17T09:40:46;99698.00;;;11.82;39.63
12676;BME280;63820;65.654;21.944;2023-02-17T09:43:31;99698.91;;;12.77;37.11
12676;BME280;63820;65.654;21.944;2023-02-17T09:49:10;99705.41;;;12.30;37.54
12676;BME280;63820;65.654;21.944;2023-02-17T09:52:11;99695.56;;;10.44;40.75
12676;BME280;63820;65.654;21.944;2023-02-17T09:55:04;99697.97;;;12.24;37.78
12676;BME280;63820;65.654;21.944;2023-02-17T09:57:57;99692.81;;;11.52;38.52
12676;BME280;63820;65.654;21.944;2023-02-17T10:00:47;99692.41;;;12.43;39.66
12676;BME280;63820;65.654;21.944;2023-02-17T10:06:27;99692.84;;;16.58;34.68
12676;BME280;63820;65.654;21.944;2023-02-17T10:09:19;99692.31;;;14.73;36.38
12676;BME280;63820;65.654;21.944;2023-02-17T10:12:09;99685.78;;;15.14;33.66
12676;BME280;63820;65.654;21.944;2023-02-17T10:15:02;99694.81;;;17.30;32.78
12676;BME280;63820;65.654;21.944;2023-02-17T10:18:09;99688.34;;;14.67;35.33
12676;BME280;63820;65.654;21.944;2023-02-17T10:20:58;99676.59;;;14.13;37.81
12676;BME280;63820;65.654;21.944;2023-02-17T10:23:45;99681.72;;;13.27;39.57
12676;BME280;63820;65.654;21.944;2023-02-17T10:29:33;99678.78;;;11.68;42.37
12676;BME280;63820;65.654;21.944;2023-02-17T10:32:23;99666.69;;;13.92;38.98
12676;BME280;63820;65.654;21.944;2023-02-17T10:35:14;99658.25;;;11.78;40.48
12676;BME280;63820;65.654;21.944;2023-02-17T10:38:14;99658.16;;;11.79;41.52
12676;BME280;63820;65.654;21.944;2023-02-17T10:41:02;99650.88;;;11.28;42.62
12676;BME280;63820;65.654;21.944;2023-02-17T10:43:47;99650.66;;;10.27;46.26
12676;BME280;63820;65.654;21.944;2023-02-17T10:46:32;99645.47;;;11.73;41.32
12676;BME280;63820;65.654;21.944;2023-02-17T10:49:38;99645.81;;;13.03;40.89
12676;BME280;63820;65.654;21.944;2023-02-17T10:52:36;99642.31;;;11.97;41.74
12676;BME280;63820;65.654;21.944;2023-02-17T10:56:23;99636.03;;;12.80;40.63
12676;BME280;63820;65.654;21.944;2023-02-17T10:59:06;99632.38;;;12.30;40.56
12676;BME280;63820;65.654;21.944;2023-02-17T11:01:58;99627.31;;;13.57;38.20
12676;BME280;63820;65.654;21.944;2023-02-17T11:04:51;99616.63;;;14.81;37.49
12676;BME280;63820;65.654;21.944;2023-02-17T11:07:40;99601.88;;;15.49;36.59
12676;BME280;63820;65.654;21.944;2023-02-17T11:10:36;99596.19;;;14.27;37.32
12676;BME280;63820;65.654;21.944;2023-02-17T11:13:33;99600.50;;;12.65;39.22
12676;BME280;63820;65.654;21.944;2023-02-17T11:16:25;99598.41;;;12.57;40.57
12676;BME280;63820;65.654;21.944;2023-02-17T11:22:30;99597.47;;;11.77;43.47
12676;BME280;63820;65.654;21.944;2023-02-17T11:25:23;99601.50;;;10.38;46.40
12676;BME280;63820;65.654;21.944;2023-02-17T11:28:13;99604.00;;;11.28;45.68
12676;BME280;63820;65.654;21.944;2023-02-17T11:31:05;99594.47;;;10.84;47.41
12676;BME280;63820;65.654;21.944;2023-02-17T11:33:50;99585.13;;;10.66;47.66
12676;BME280;63820;65.654;21.944;2023-02-17T11:36:34;99596.94;;;10.71;45.98
12676;BME280;63820;65.654;21.944;2023-02-17T11:39:20;99597.38;;;8.72;50.62
12676;BME280;63820;65.654;21.944;2023-02-17T11:45:17;99592.63;;;8.63;51.83
12676;BME280;63820;65.654;21.944;2023-02-17T11:54:22;99581.50;;;11.12;45.16
12676;BME280;63820;65.654;21.944;2023-02-17T11:57:22;99581.47;;;11.55;44.95
12676;BME280;63820;65.654;21.944;2023-02-17T12:00:14;99583.91;;;11.16;45.07
12676;BME280;63820;65.654;21.944;2023-02-17T12:10:04;99592.50;;;7.94;54.31
12676;BME280;63820;65.654;21.944;2023-02-17T12:13:19;99592.59;;;8.28;52.17
12676;BME280;63820;65.654;21.944;2023-02-17T12:16:26;99587.06;;;7.62;52.53
12676;BME280;63820;65.654;21.944;2023-02-17T12:19:29;99584.19;;;7.68;50.46
12676;BME280;63820;65.654;21.944;2023-02-17T12:22:21;99587.44;;;8.80;46.02
12676;BME280;63820;65.654;21.944;2023-02-17T12:34:08;99563.75;;;9.21;47.17
12676;BME280;63820;65.654;21.944;2023-02-17T12:36:57;99565.19;;;10.05;44.28
12676;BME280;63820;65.654;21.944;2023-02-17T12:39:47;99566.63;;;9.63;47.46
12676;BME280;63820;65.654;21.944;2023-02-17T12:42:44;99569.84;;;8.52;46.05
12676;BME280;63820;65.654;21.944;2023-02-17T12:45:42;99561.00;;;8.03;50.62
12676;BME280;63820;65.654;21.944;2023-02-17T12:48:43;99560.59;;;8.29;46.25
12676;BME280;63820;65.654;21.944;2023-02-17T12:57:28;99541.03;;;7.50;55.71
12676;BME280;63820;65.654;21.944;2023-02-17T13:03:21;99529.38;;;5.57;64.69
12676;BME280;63820;65.654;21.944;2023-02-17T13:06:38;99537.75;;;4.93;71.85
12676;BME280;63820;65.654;21.944;2023-02-17T13:09:36;99529.19;;;4.68;74.05
12676;BME280;63820;65.654;21.944;2023-02-17T13:15:26;99520.94;;;4.83;78.31
12676;BME280;63820;65.654;21.944;2023-02-17T13:18:32;99525.44;;;3.74;94.88
12676;BME280;63820;65.654;21.944;2023-02-17T13:21:25;99528.84;;;3.47;90.99
12676;BME280;63820;65.654;21.944;2023-02-17T13:24:14;99516.88;;;3.46;87.96
12676;BME280;63820;65.654;21.944;2023-02-17T13:33:27;99518.38;;;3.53;94.19
12676;BME280;63820;65.654;21.944;2023-02-17T13:36:14;99521.59;;;3.32;95.30
12676;BME280;63820;65.654;21.944;2023-02-17T13:42:39;99517.78;;;2.86;90.52
12676;BME280;63820;65.654;21.944;2023-02-17T13:48:32;99524.25;;;1.64;100.00
12676;BME280;63820;65.654;21.944;2023-02-17T13:51:26;99522.94;;;1.07;100.00
12676;BME280;63820;65.654;21.944;2023-02-17T13:54:11;99518.13;;;1.31;100.00
12676;BME280;63820;65.654;21.944;2023-02-17T13:56:55;99510.97;;;1.07;100.00
12676;BME280;63820;65.654;21.944;2023-02-17T13:59:39;99499.38;;;0.91;100.00
12676;BME280;63820;65.654;21.944;2023-02-17T14:02:23;99511.34;;;0.89;100.00
12676;BME280;63820;65.654;21.944;2023-02-17T14:05:18;99506.16;;;0.49;100.00
12676;BME280;63820;65.654;21.944;2023-02-17T14:08:50;99505.88;;;0.15;100.00
12676;BME280;63820;65.654;21.944;2023-02-17T14:11:12;99503.16;;;-0.25;100.00
12676;BME280;63820;65.654;21.944;2023-02-17T14:13:56;99491.75;;;-0.61;100.00
12676;BME280;63820;65.654;21.944;2023-02-17T14:16:42;99493.81;;;-0.88;100.00
12676;BME280;63820;65.654;21.944;2023-02-17T14:19:46;99484.06;;;-1.21;100.00
12676;BME280;63820;65.654;21.944;2023-02-17T14:22:33;99487.78;;;-1.50;100.00
12676;BME280;63820;65.654;21.944;2023-02-17T14:25:26;99489.72;;;-1.76;100.00
12676;BME280;63820;65.654;21.944;2023-02-17T14:28:22;99496.63;;;-1.86;100.00
12676;BME280;63820;65.654;21.944;2023-02-17T14:31:11;99498.50;;;-2.08;100.00
12676;BME280;63820;65.654;21.944;2023-02-17T14:34:00;99496.78;;;-2.06;100.00
12676;BME280;63820;65.654;21.944;2023-02-17T14:36:44;99494.16;;;-1.95;100.00
12676;BME280;63820;65.654;21.944;2023-02-17T14:39:30;99500.00;;;-1.85;100.00
12676;BME280;63820;65.654;21.944;2023-02-17T14:42:13;99500.03;;;-1.88;100.00
12676;BME280;63820;65.654;21.944;2023-02-17T14:44:57;99490.72;;;-1.89;100.00
12676;BME280;63820;65.654;21.944;2023-02-17T14:47:42;99489.94;;;-2.01;100.00
12676;BME280;63820;65.654;21.944;2023-02-17T14:50:26;99512.16;;;-2.10;100.00
12676;BME280;63820;65.654;21.944;2023-02-17T14:53:23;99522.28;;;-2.07;100.00
12676;BME280;63820;65.654;21.944;2023-02-17T14:59:09;99520.66;;;-2.13;100.00
12676;BME280;63820;65.654;21.944;2023-02-17T15:01:53;99524.09;;;-2.17;100.00
12676;BME280;63820;65.654;21.944;2023-02-17T15:04:38;99533.38;;;-2.10;100.00
12676;BME280;63820;65.654;21.944;2023-02-17T15:07:22;99522.38;;;-2.15;100.00
12676;BME280;63820;65.654;21.944;2023-02-17T15:10:26;99516.41;;;-2.14;100.00
12676;BME280;63820;65.654;21.944;2023-02-17T15:13:19;99516.28;;;-2.00;100.00
12676;BME280;63820;65.654;21.944;2023-02-17T15:16:04;99525.53;;;-1.88;100.00
12676;BME280;63820;65.654;21.944;2023-02-17T15:18:49;99523.97;;;-2.08;100.00
12676;BME280;63820;65.654;21.944;2023-02-17T15:21:35;99528.97;;;-1.94;100.00
12676;BME280;63820;65.654;21.944;2023-02-17T15:24:25;99527.28;;;-1.97;100.00
12676;BME280;63820;65.654;21.944;2023-02-17T15:27:13;99527.28;;;-1.93;100.00
12676;BME280;63820;65.654;21.944;2023-02-17T15:29:57;99532.38;;;-1.93;100.00
12676;BME280;63820;65.654;21.944;2023-02-17T15:32:42;99523.81;;;-1.86;100.00
12676;BME280;63820;65.654;21.944;2023-02-17T15:35:27;99522.09;;;-1.86;100.00
12676;BME280;63820;65.654;21.944;2023-02-17T15:38:12;99524.59;;;-1.80;100.00
12676;BME280;63820;65.654;21.944;2023-02-17T15:40:57;99516.91;;;-1.75;100.00
12676;BME280;63820;65.654;21.944;2023-02-17T15:43:42;99505.91;;;-1.80;100.00
12676;BME280;63820;65.654;21.944;2023-02-17T15:46:30;99510.91;;;-1.68;100.00
12676;BME280;63820;65.654;21.944;2023-02-17T15:49:15;99504.97;;;-1.70;100.00
12676;BME280;63820;65.654;21.944;2023-02-17T15:51:59;99503.28;;;-1.71;100.00
12676;BME280;63820;65.654;21.944;2023-02-17T15:54:44;99506.69;;;-1.72;100.00
12676;BME280;63820;65.654;21.944;2023-02-17T15:57:27;99509.19;;;-1.66;100.00
12676;BME280;63820;65.654;21.944;2023-02-17T16:00:19;99507.38;;;-1.55;100.00
12676;BME280;63820;65.654;21.944;2023-02-17T16:03:04;99505.72;;;-1.60;100.00